Time;durP1;ratioP1;P1;durP2;ratioP2;P2;SDS_P1;SDS_P2;PMS_P1;PMS_P2;Temp;Humidity;BMP_temperature;BMP_pressure;BME280_temperature;BME280_humidity;BME280_pressure;Samples;Min_cycle;Max_cycle;Signal;HPM_P1;HPM_P2
2019/04/03 11:56:40;;;;;;;10.5;9.3;;;;;;;25.22;26.70898;945.6057;;;;
2019/04/03 11:59:05;;;;;;;11.4;9.3;;;;;;;25.53;25.54297;945.608;;;;
2019/04/03 12:01:30;;;;;;;10.1;9.1;;;;;;;25.61;25.10449;945.5577;;;;
2019/04/03 12:04:58;;;;;;;12.6;10.4;;;;;;;25.47;24.61816;945.4709;;;;
2019/04/03 12:07:23;;;;;;;10.6;9.6;;;;;;;25.44;25.4541;945.4077;;;;
2019/04/03 12:09:48;;;;;;;10.5;9.4;;;;;;;25.44;25.57422;945.4116;;;;
2019/04/03 12:14:42;;;;;;;13.9;10.8;;;;;;;25.3;24.87207;945.3189;;;;
2019/04/03 12:17:08;;;;;;;10.1;9;;;;;;;25.5;24.18848;945.2961;;;;
2019/04/03 12:19:33;;;;;;;10.3;8.5;;;;;;;25.55;24.47852;945.2944;;;;
2019/04/03 12:22:57;;;;;;;8.7;7.3;;;;;;;25.83;23.17676;945.1666;;;;
2019/04/03 12:25:22;;;;;;;8;7.2;;;;;;;25.93;22.17578;945.1161;;;;
2019/04/03 12:27:47;;;;;;;10.1;8.5;;;;;;;25.75;22.44238;945.0916;;;;
2019/04/03 12:30:12;;;;;;;11.7;8.5;;;;;;;25.61;22.04004;944.9941;;;;
2019/04/03 12:32:38;;;;;;;8.7;7.2;;;;;;;25.47;23.95996;944.9523;;;;
2019/04/03 12:35:03;;;;;;;9.8;7.9;;;;;;;25.76;24.58594;944.9498;;;;
2019/04/03 12:37:28;;;;;;;11.3;9.7;;;;;;;25.95;23.13477;944.928;;;;
2019/04/03 12:39:53;;;;;;;9.1;7.8;;;;;;;26.15;23.96094;944.8687;;;;
2019/04/03 12:42:29;;;;;;;10.5;9.4;;;;;;;26.39;22.96582;944.8334;;;;
2019/04/03 12:44:54;;;;;;;11.3;9.1;;;;;;;26.27;23.24707;944.7834;;;;
2019/04/03 12:47:19;;;;;;;11.2;9.8;;;;;;;26.28;23.74023;944.7899;;;;
2019/04/03 12:49:45;;;;;;;11.9;9.8;;;;;;;26.33;23.49121;944.7355;;;;
2019/04/03 12:52:09;;;;;;;12.8;10.1;;;;;;;26.35;23.43164;944.6443;;;;
2019/04/03 12:54:34;;;;;;;12.4;11.1;;;;;;;26.08;23.65723;944.7098;;;;
2019/04/03 12:57:00;;;;;;;13.4;12;;;;;;;25.63;22.74707;944.5884;;;;
2019/04/03 12:59:27;;;;;;;12.9;11.3;;;;;;;24.89;25.25586;944.5975;;;;
2019/04/03 13:01:52;;;;;;;13.3;11.8;;;;;;;24.44;24.66895;944.495;;;;
2019/04/03 13:04:15;;;;;;;15.6;12.6;;;;;;;24.01;26.38672;944.4891;;;;
2019/04/03 13:06:42;;;;;;;10.8;8.7;;;;;;;24.16;27.05176;944.4814;;;;
2019/04/03 13:09:06;;;;;;;12.8;10.2;;;;;;;24.39;25.31055;944.4586;;;;
2019/04/03 13:11:31;;;;;;;16.4;13.3;;;;;;;24.56;25.5957;944.3753;;;;
2019/04/03 13:13:56;;;;;;;16.2;13.9;;;;;;;24.18;25.91895;944.4038;;;;
2019/04/03 13:16:21;;;;;;;17.3;13.2;;;;;;;24.33;25.82129;944.3739;;;;
2019/04/03 13:18:50;;;;;;;16.4;14;;;;;;;23.99;26.67188;944.3878;;;;
2019/04/03 13:21:14;;;;;;;16.4;14.1;;;;;;;23.99;27.54297;944.2794;;;;
2019/04/03 13:23:39;;;;;;;17;14.2;;;;;;;24.03;27.59277;944.2494;;;;
2019/04/03 13:26:05;;;;;;;16.2;13;;;;;;;24.38;27.25684;944.1892;;;;
2019/04/03 13:28:30;;;;;;;15.7;14.1;;;;;;;24.37;26.87402;944.1177;;;;
2019/04/03 13:30:54;;;;;;;17.4;14.9;;;;;;;24.27;26.14063;944.0667;;;;
2019/04/03 13:33:20;;;;;;;17.1;15.3;;;;;;;24.5;26.59473;944.0695;;;;
2019/04/03 13:35:46;;;;;;;15.1;13.5;;;;;;;24.98;25.3916;943.9955;;;;
2019/04/03 13:38:10;;;;;;;15.8;14.1;;;;;;;25.47;24.8457;943.9511;;;;
2019/04/03 13:40:37;;;;;;;15.4;13.8;;;;;;;25.8;24.81641;943.8448;;;;
2019/04/03 13:43:02;;;;;;;16.1;14;;;;;;;25.77;24.85059;943.8078;;;;
2019/04/03 13:45:28;;;;;;;17.5;15.2;;;;;;;25.93;24.00879;943.7132;;;;
2019/04/03 13:47:53;;;;;;;18.1;16.2;;;;;;;25.44;23.68262;943.5958;;;;
2019/04/03 13:50:20;;;;;;;17.2;13.9;;;;;;;25.6;24.55371;943.567;;;;
2019/04/03 13:52:44;;;;;;;17.4;15;;;;;;;25.68;24.27051;943.4412;;;;
2019/04/03 13:55:12;;;;;;;21;15.6;;;;;;;25.7;24.22363;943.5075;;;;
2019/04/03 13:57:36;;;;;;;17.7;14.7;;;;;;;25.92;24.9668;943.4055;;;;
2019/04/03 14:00:01;;;;;;;15.9;14;;;;;;;25.96;23.49512;943.3753;;;;
2019/04/03 14:02:27;;;;;;;16.8;15;;;;;;;26.32;23.10645;943.3686;;;;
2019/04/03 14:04:52;;;;;;;16.2;14.3;;;;;;;26.52;22.61328;943.2748;;;;
2019/04/03 14:07:17;;;;;;;17.3;15.5;;;;;;;26.14;23.28906;943.1967;;;;
2019/04/03 14:09:42;;;;;;;17.5;15.2;;;;;;;25.99;24.31152;943.1891;;;;
2019/04/03 14:12:09;;;;;;;17.7;14.9;;;;;;;26.25;23.47461;943.1351;;;;
2019/04/03 14:14:36;;;;;;;17;15.2;;;;;;;26.4;22.83398;943.0472;;;;
2019/04/03 14:17:01;;;;;;;16.3;13.3;;;;;;;26.3;23.16504;942.9894;;;;
2019/04/03 14:19:26;;;;;;;18.4;14.6;;;;;;;26.31;22.27832;942.935;;;;
2019/04/03 14:21:51;;;;;;;18.2;13.4;;;;;;;26.28;24.18262;942.9023;;;;
2019/04/03 14:24:16;;;;;;;16.5;13.1;;;;;;;26.25;23.54688;942.8582;;;;
2019/04/03 14:26:43;;;;;;;16.6;14.5;;;;;;;26.18;22.91895;942.8123;;;;
2019/04/03 14:29:08;;;;;;;17.3;13.6;;;;;;;25.8;23.10352;942.8054;;;;
2019/04/03 14:31:34;;;;;;;15.4;13.8;;;;;;;25.78;23.5332;942.6867;;;;
2019/04/03 14:34:01;;;;;;;16.7;13.8;;;;;;;25.44;23.06055;942.5778;;;;
2019/04/03 14:36:26;;;;;;;15.7;12.5;;;;;;;25.03;22.83594;942.5709;;;;
2019/04/03 14:38:51;;;;;;;12.8;11;;;;;;;24.66;24.38184;942.5328;;;;
2019/04/03 14:41:16;;;;;;;17.1;12.6;;;;;;;24.49;24.48047;942.5181;;;;
2019/04/03 14:43:42;;;;;;;15.7;12.1;;;;;;;24.1;25.5332;942.5065;;;;
2019/04/03 14:46:08;;;;;;;17.9;13.1;;;;;;;23.42;25.98242;942.4678;;;;
2019/04/03 14:48:34;;;;;;;15.9;12.8;;;;;;;22.93;26.64453;942.4634;;;;
2019/04/03 14:50:59;;;;;;;13.3;11.4;;;;;;;23.07;27.84277;942.4066;;;;
2019/04/03 14:53:24;;;;;;;14.2;11.3;;;;;;;23.34;27.31152;942.3836;;;;
2019/04/03 14:55:49;;;;;;;14.7;11.9;;;;;;;23.43;27.06738;942.3354;;;;
2019/04/03 14:58:14;;;;;;;12.3;10.7;;;;;;;23.39;27.13672;942.2726;;;;
2019/04/03 15:00:40;;;;;;;61.7;49.3;;;;;;;23.41;26.56543;942.2213;;;;
2019/04/03 15:03:05;;;;;;;12;8.4;;;;;;;23.42;25.0293;942.2289;;;;
2019/04/03 15:05:30;;;;;;;12.1;8.2;;;;;;;23.23;24.91211;942.252;;;;
2019/04/03 15:07:56;;;;;;;12.8;7.6;;;;;;;23.08;24.55762;942.1738;;;;
2019/04/03 15:10:21;;;;;;;11.6;7.2;;;;;;;22.84;25.9375;942.1775;;;;
2019/04/03 15:12:46;;;;;;;8;6.1;;;;;;;22.86;23.95117;942.1465;;;;
2019/04/03 15:15:11;;;;;;;8.2;6.5;;;;;;;22.89;26.11816;942.103;;;;
2019/04/03 15:17:43;;;;;;;4.5;3.6;;;;;;;22.98;23.7666;942.0811;;;;
2019/04/03 15:20:08;;;;;;;5.6;2.4;;;;;;;22.87;23.21387;942.0239;;;;
2019/04/03 15:22:34;;;;;;;3.7;2.4;;;;;;;22.86;22.95117;942.0476;;;;
2019/04/03 15:24:59;;;;;;;2.8;1.7;;;;;;;22.82;22.77051;941.9547;;;;
2019/04/03 15:27:24;;;;;;;2.3;2.1;;;;;;;23.03;21.48438;941.8842;;;;
2019/04/03 15:29:49;;;;;;;3.3;1.9;;;;;;;22.88;21.94141;941.9257;;;;
2019/04/03 15:32:14;;;;;;;2.3;1.8;;;;;;;22.92;21.87207;941.8569;;;;
2019/04/03 15:34:40;;;;;;;4.4;1.9;;;;;;;22.67;21.63379;941.9543;;;;
2019/04/03 15:37:06;;;;;;;3.4;2;;;;;;;22.6;21.92773;941.9026;;;;
2019/04/03 15:39:31;;;;;;;3.9;2.1;;;;;;;22.48;22.59863;941.882;;;;
2019/04/03 15:41:56;;;;;;;3.5;1.8;;;;;;;22.46;22.16992;941.9033;;;;
2019/04/03 15:44:21;;;;;;;1.6;1.5;;;;;;;22.4;21.59668;941.8016;;;;
2019/04/03 15:46:46;;;;;;;2.9;1.8;;;;;;;22.26;22.08887;941.7441;;;;
2019/04/03 15:49:11;;;;;;;3.7;1.6;;;;;;;22.03;21.70898;941.8145;;;;
2019/04/03 15:51:36;;;;;;;3.7;1.8;;;;;;;21.78;21.29297;941.7623;;;;
2019/04/03 15:54:02;;;;;;;3.8;1.6;;;;;;;21.43;21.8584;941.8372;;;;
2019/04/03 15:56:27;;;;;;;4.6;2.1;;;;;;;21.22;21.98926;941.926;;;;
2019/04/03 15:58:53;;;;;;;3.1;1.6;;;;;;;20.75;21.50488;941.8758;;;;
2019/04/03 16:01:18;;;;;;;5.1;1.5;;;;;;;20.59;22.51465;941.9187;;;;
2019/04/03 16:03:43;;;;;;;2.9;1.5;;;;;;;20.39;23.43945;941.8557;;;;
2019/04/03 16:06:08;;;;;;;2.6;1.6;;;;;;;20.17;22.75391;941.8537;;;;
2019/04/03 16:08:33;;;;;;;5;1.8;;;;;;;19.98;22.4248;941.842;;;;
2019/04/03 16:10:59;;;;;;;2;1.5;;;;;;;19.93;22.94238;941.8117;;;;
2019/04/03 16:13:24;;;;;;;3.8;1.6;;;;;;;19.79;23.44336;941.8292;;;;
2019/04/03 16:15:50;;;;;;;3.9;1.5;;;;;;;19.78;24.21094;941.9047;;;;
2019/04/03 16:18:15;;;;;;;2.6;1.5;;;;;;;19.71;23.5332;941.8525;;;;
2019/04/03 16:20:40;;;;;;;1.9;1.4;;;;;;;19.68;23.7207;941.9138;;;;
2019/04/03 16:23:08;;;;;;;2.6;1.4;;;;;;;19.58;24.23535;941.9152;;;;
2019/04/03 16:25:32;;;;;;;4.7;1.7;;;;;;;19.52;23.05078;941.8833;;;;
2019/04/03 16:27:57;;;;;;;3.6;1.9;;;;;;;19.49;23.43848;941.902;;;;
2019/04/03 16:30:22;;;;;;;1.8;1.6;;;;;;;19.43;23.75488;941.9075;;;;
2019/04/03 16:32:47;;;;;;;2.2;1.7;;;;;;;19.4;23.39844;941.8312;;;;
2019/04/03 16:35:12;;;;;;;2.7;1.6;;;;;;;19.46;23.59082;941.8761;;;;
2019/04/03 16:37:38;;;;;;;2.6;1.8;;;;;;;19.47;24.14648;941.8694;;;;
2019/04/03 16:40:02;;;;;;;4;1.8;;;;;;;19.47;23.78027;941.8954;;;;
2019/04/03 16:42:28;;;;;;;3.7;1.6;;;;;;;19.6;24.50781;941.8994;;;;
2019/04/03 16:44:54;;;;;;;4.6;1.7;;;;;;;19.46;24.45313;941.8554;;;;
2019/04/03 16:47:19;;;;;;;4.4;1.7;;;;;;;19.49;24.60742;941.8541;;;;
2019/04/03 16:49:44;;;;;;;2.5;1.7;;;;;;;19.46;24.71289;941.8722;;;;
2019/04/03 16:52:10;;;;;;;1.6;1.5;;;;;;;19.36;24.15137;941.8346;;;;
2019/04/03 16:54:36;;;;;;;4.4;1.8;;;;;;;19.14;24.43457;941.784;;;;
2019/04/03 16:57:01;;;;;;;2.9;1.9;;;;;;;19.02;24.86426;941.858;;;;
2019/04/03 16:59:26;;;;;;;2.8;1.8;;;;;;;18.94;24.18848;941.8403;;;;
2019/04/03 17:01:51;;;;;;;4.5;1.8;;;;;;;18.86;25.26855;941.8867;;;;
2019/04/03 17:04:16;;;;;;;4.1;1.9;;;;;;;18.82;25.97363;941.8234;;;;
2019/04/03 17:06:46;;;;;;;3.5;2.1;;;;;;;18.68;25.29395;941.8406;;;;
2019/04/03 17:09:11;;;;;;;2;1.6;;;;;;;18.65;25.23242;941.8109;;;;
2019/04/03 17:11:39;;;;;;;6.9;1.9;;;;;;;18.67;26.05859;941.829;;;;
2019/04/03 17:14:04;;;;;;;2.2;1.7;;;;;;;18.65;25.37402;941.7903;;;;
2019/04/03 17:16:32;;;;;;;6.5;1.7;;;;;;;18.6;25.52441;941.7724;;;;
2019/04/03 17:18:57;;;;;;;3.4;1.8;;;;;;;18.51;26.00195;941.8404;;;;
2019/04/03 17:21:24;;;;;;;3.6;1.8;;;;;;;18.48;25.31738;941.8549;;;;
2019/04/03 17:23:59;;;;;;;2.5;1.7;;;;;;;18.38;25.5;941.7728;;;;
2019/04/03 17:26:31;;;;;;;3.1;1.9;;;;;;;18.27;26.43555;941.7802;;;;
2019/04/03 17:29:06;;;;;;;2.6;1.8;;;;;;;18.24;26.10449;941.7894;;;;
2019/04/03 17:31:30;;;;;;;3.1;1.7;;;;;;;18.15;26.38184;941.8058;;;;
2019/04/03 17:33:55;;;;;;;2.8;1.8;;;;;;;17.97;26.22949;941.7942;;;;
2019/04/03 17:36:21;;;;;;;3.2;1.9;;;;;;;17.87;26.64746;941.7263;;;;
2019/04/03 17:38:46;;;;;;;2.4;1.9;;;;;;;17.84;26.98633;941.8222;;;;
2019/04/03 17:41:11;;;;;;;3.4;2;;;;;;;17.74;27.67383;941.8215;;;;
2019/04/03 17:43:36;;;;;;;2.5;1.9;;;;;;;17.67;27.52832;941.8088;;;;
2019/04/03 17:46:08;;;;;;;17.3;2.4;;;;;;;17.64;27.58594;941.8649;;;;
2019/04/03 17:48:31;;;;;;;2.5;1.8;;;;;;;17.6;27.68848;941.8724;;;;
2019/04/03 17:50:57;;;;;;;3.7;1.8;;;;;;;17.54;27.52051;941.8259;;;;
2019/04/03 17:53:22;;;;;;;3.3;2.2;;;;;;;17.38;27.89844;941.8153;;;;
2019/04/03 17:55:49;;;;;;;2.7;1.7;;;;;;;17.42;28.20703;941.8864;;;;
2019/04/03 17:58:14;;;;;;;4;2;;;;;;;17.34;28.10742;941.9124;;;;
2019/04/03 18:00:43;;;;;;;3.7;2.1;;;;;;;17.25;28.24219;941.9153;;;;
2019/04/03 18:03:08;;;;;;;2.6;2.1;;;;;;;17.23;28.27637;941.9322;;;;
2019/04/03 18:05:33;;;;;;;3.5;2.3;;;;;;;17.16;28.6123;941.8705;;;;
2019/04/03 18:07:58;;;;;;;2.4;2;;;;;;;17.04;28.46387;941.9433;;;;
2019/04/03 18:10:23;;;;;;;3.9;2.2;;;;;;;16.97;28.70605;941.9381;;;;
2019/04/03 18:12:48;;;;;;;2.9;2.4;;;;;;;16.85;28.95605;942.0069;;;;
2019/04/03 18:15:23;;;;;;;3.6;2.1;;;;;;;16.77;29.64355;942.0847;;;;
2019/04/03 18:17:53;;;;;;;4.5;2.3;;;;;;;16.67;29.8125;942.0977;;;;
